createdAt,value
2023-04-20T01:10:14.054Z,22.60
2023-04-20T01:13:15.711Z,22.70
2023-04-20T01:16:17.900Z,22.50
2023-04-20T01:19:20.788Z,22.50
2023-04-20T01:22:22.786Z,22.40
2023-04-20T01:25:24.790Z,22.30
2023-04-20T01:28:27.811Z,22.60
2023-04-20T01:31:29.134Z,22.60
2023-04-20T01:34:32.782Z,22.30
2023-04-20T01:37:34.850Z,22.20
2023-04-20T01:40:39.141Z,22.30
2023-04-20T01:43:41.960Z,22.40
2023-04-20T01:46:43.414Z,22.30
2023-04-20T01:49:44.679Z,22.60
2023-04-20T01:52:46.676Z,22.00
2023-04-20T01:55:49.072Z,22.60
2023-04-20T01:58:50.653Z,22.30
2023-04-20T02:01:52.649Z,22.50
2023-04-20T02:04:55.308Z,22.40
2023-04-20T02:07:57.305Z,22.40
2023-04-20T02:10:59.013Z,22.20
2023-04-20T02:14:00.492Z,22.40
2023-04-20T02:17:02.052Z,22.50
2023-04-20T02:20:06.437Z,22.10
2023-04-20T02:23:08.451Z,21.90
2023-04-20T02:26:11.756Z,22.40
2023-04-20T02:29:15.706Z,22.30
2023-04-20T02:32:17.427Z,22.00
2023-04-20T02:35:19.024Z,22.00
2023-04-20T02:38:21.128Z,22.00
2023-04-20T02:41:22.804Z,22.20
2023-04-20T02:44:24.283Z,22.40
2023-04-20T02:47:26.087Z,22.20
2023-04-20T02:50:28.981Z,22.00
2023-04-20T02:58:40.149Z,22.30
2023-04-20T03:01:50.191Z,21.80
2023-04-20T03:04:56.047Z,21.70
2023-04-20T03:07:58.887Z,22.00
2023-04-20T03:11:01.759Z,22.00
2023-04-20T03:14:05.164Z,22.10
2023-04-20T03:17:06.872Z,22.20
2023-04-20T03:20:08.588Z,21.70
2023-04-20T03:23:10.542Z,22.10
2023-04-20T03:26:12.773Z,22.00
2023-04-20T03:29:31.517Z,22.20
2023-04-20T03:32:34.718Z,22.00
2023-04-20T03:35:38.512Z,22.30
2023-04-20T03:38:40.297Z,21.70
2023-04-20T03:41:41.709Z,21.70
2023-04-20T03:44:43.916Z,21.80
2023-04-20T03:47:45.458Z,22.00
2023-04-20T03:50:46.741Z,21.70
2023-04-20T03:53:48.154Z,21.80
2023-04-20T03:56:49.719Z,21.80
2023-04-20T03:59:52.539Z,21.80
2023-04-20T04:02:56.983Z,21.80
2023-04-20T04:06:02.593Z,22.10
2023-04-20T04:09:08.385Z,22.00
2023-04-20T04:12:10.068Z,21.70
2023-04-20T04:15:13.394Z,21.80
2023-04-20T04:18:25.792Z,21.70
2023-04-20T04:21:28.999Z,22.00
2023-04-20T04:24:38.136Z,21.90
2023-04-20T04:27:43.154Z,21.90
2023-04-20T04:30:46.541Z,21.90
2023-04-20T04:33:48.774Z,22.10
2023-04-20T04:37:00.275Z,21.80
2023-04-20T04:40:13.492Z,22.00
2023-04-20T04:43:15.972Z,21.70
2023-04-20T04:46:27.948Z,21.60
2023-04-20T04:49:32.121Z,21.90
2023-04-20T04:52:34.849Z,21.80
2023-04-20T04:55:38.630Z,21.50
2023-04-20T04:58:43.117Z,22.10
2023-04-20T05:01:45.294Z,21.90
2023-04-20T05:04:48.149Z,21.90
2023-04-20T05:07:49.630Z,21.60
2023-04-20T05:10:50.870Z,22.00
2023-04-20T05:13:52.409Z,21.60
2023-04-20T05:16:54.346Z,22.00
2023-04-20T05:19:55.790Z,21.90
2023-04-20T05:22:57.056Z,21.80
2023-04-20T05:25:58.506Z,21.70
2023-04-20T05:28:59.819Z,21.50
2023-04-20T05:32:01.959Z,21.80
2023-04-20T05:35:04.281Z,21.80
2023-04-20T05:38:08.096Z,21.50
2023-04-20T05:41:09.532Z,21.60
2023-04-20T05:44:10.860Z,21.70
2023-04-20T05:47:13.009Z,21.70
2023-04-20T05:50:14.448Z,21.90
2023-04-20T05:53:16.050Z,21.40
2023-04-20T05:56:18.965Z,21.40
2023-04-20T05:59:20.841Z,21.70
2023-04-20T06:02:23.079Z,21.50
2023-04-20T06:05:25.186Z,21.70
2023-04-20T06:08:26.696Z,21.60
2023-04-20T06:11:27.994Z,21.20
2023-04-20T06:14:29.500Z,21.80
2023-04-20T06:17:36.682Z,21.70
2023-04-20T06:20:38.649Z,21.60
2023-04-20T06:23:40.122Z,21.70
2023-04-20T06:26:41.399Z,21.60
2023-04-20T06:29:42.905Z,22.00
2023-04-20T06:32:45.207Z,21.60
2023-04-20T06:35:46.717Z,21.70
2023-04-20T06:38:47.991Z,21.50
2023-04-20T06:41:49.416Z,21.80
2023-04-20T06:44:50.866Z,21.30
2023-04-20T06:47:53.060Z,22.10
2023-04-20T06:50:54.486Z,21.40
2023-04-20T06:53:55.987Z,21.70
2023-04-20T06:56:57.582Z,21.70
2023-04-20T07:00:00.474Z,21.60
2023-04-20T07:03:02.745Z,21.40
2023-04-20T07:06:04.483Z,21.50
2023-04-20T07:09:07.676Z,21.60
2023-04-20T07:12:14.826Z,21.80
2023-04-20T07:15:16.258Z,21.50
2023-04-20T07:18:18.248Z,21.70
2023-04-20T07:21:20.173Z,21.90
2023-04-20T07:24:24.197Z,22.10
2023-04-20T07:27:27.156Z,21.60
2023-04-20T07:30:30.410Z,22.00
2023-04-20T07:33:35.099Z,22.40
2023-04-20T07:36:38.725Z,22.00
2023-04-20T07:39:40.193Z,22.10
2023-04-20T07:42:45.135Z,21.90
2023-04-20T07:45:47.675Z,21.80
2023-04-20T07:48:49.965Z,22.00
2023-04-20T07:51:51.537Z,22.20
2023-04-20T07:54:54.332Z,22.10
2023-04-20T07:57:56.732Z,21.80
2023-04-20T08:00:58.171Z,22.20
2023-04-20T08:04:01.547Z,22.20
2023-04-20T08:07:03.452Z,22.10
2023-04-20T08:10:05.473Z,21.80
2023-04-20T08:13:08.159Z,22.30
2023-04-20T08:16:09.823Z,22.20
2023-04-20T08:19:12.061Z,22.00
2023-04-20T08:22:13.491Z,22.00
2023-04-20T08:25:14.816Z,22.30
2023-04-20T08:28:32.415Z,22.30
2023-04-20T08:31:35.364Z,22.40
2023-04-20T08:34:38.206Z,22.10
2023-04-20T08:37:41.133Z,22.20
2023-04-20T08:40:47.637Z,22.40
2023-04-20T08:43:49.857Z,22.00
2023-04-20T08:46:51.583Z,22.60
2023-04-20T08:49:54.312Z,22.20
2023-04-20T08:52:55.880Z,22.20
2023-04-20T08:55:57.395Z,22.50
2023-04-20T08:58:59.919Z,22.30
2023-04-20T09:02:09.921Z,22.30
2023-04-20T09:05:12.712Z,22.40
2023-04-20T09:08:14.168Z,22.20
2023-04-20T09:11:23.944Z,22.50
2023-04-20T09:14:25.365Z,22.30
2023-04-20T09:17:31.431Z,22.50
2023-04-20T09:20:36.326Z,22.80
2023-04-20T09:23:37.827Z,22.40
2023-04-20T09:26:39.092Z,22.40
2023-04-20T09:29:40.696Z,22.30
2023-04-20T09:32:42.210Z,22.00
2023-04-20T09:35:45.089Z,22.40
2023-04-20T09:38:46.685Z,22.50
2023-04-20T09:41:50.746Z,22.60
2023-04-20T09:44:59.339Z,22.50
2023-04-20T09:48:04.031Z,22.90
2023-04-20T09:51:07.199Z,22.40
2023-04-20T09:54:09.955Z,22.60
2023-04-20T09:57:14.460Z,22.50
2023-04-20T10:00:17.222Z,22.40
2023-04-20T10:03:19.739Z,22.60
2023-04-20T10:06:23.694Z,22.50
2023-04-20T10:09:25.974Z,22.30
2023-04-20T10:12:28.696Z,22.50
2023-04-20T10:15:38.041Z,22.10
2023-04-20T10:18:41.284Z,22.60
2023-04-20T10:21:47.600Z,22.50
2023-04-20T10:24:51.996Z,22.50
2023-04-20T10:27:56.141Z,22.70
2023-04-20T10:30:57.727Z,22.50
2023-04-20T10:33:59.197Z,22.60
2023-04-20T10:37:08.923Z,22.60
2023-04-20T10:40:11.203Z,22.80
2023-04-20T10:43:21.288Z,22.60
2023-04-20T10:46:24.029Z,22.40
2023-04-20T10:49:26.268Z,22.50
2023-04-20T10:52:37.074Z,22.50
2023-04-20T10:55:38.581Z,22.60
2023-04-20T10:58:40.649Z,22.50
2023-04-20T11:01:42.647Z,22.80
2023-04-20T11:04:44.140Z,22.60
2023-04-20T11:07:50.930Z,22.60
2023-04-20T11:10:53.825Z,22.90
2023-04-20T11:14:09.173Z,22.80
2023-04-20T11:17:10.877Z,22.70
2023-04-20T11:20:16.768Z,22.80
2023-04-20T11:23:23.125Z,22.80
2023-04-20T11:26:35.475Z,22.40
2023-04-20T11:29:39.213Z,22.50
2023-04-20T11:32:40.966Z,22.60
2023-04-20T11:35:43.536Z,22.90
2023-04-20T11:38:45.629Z,22.80
2023-04-20T11:41:47.033Z,22.80
2023-04-20T11:44:48.637Z,22.80
2023-04-20T11:47:51.739Z,22.90
2023-04-20T11:50:56.157Z,22.50
2023-04-20T11:53:58.333Z,22.60
2023-04-20T11:57:00.032Z,22.80
2023-04-20T12:00:01.567Z,22.70
2023-04-20T12:03:03.279Z,22.50
2023-04-20T12:06:09.846Z,22.70
2023-04-20T12:09:12.957Z,23.10
2023-04-20T12:12:15.044Z,24.30
2023-04-20T12:15:19.911Z,24.50
2023-04-20T12:18:22.727Z,23.40
2023-04-20T12:21:26.197Z,22.30
2023-04-20T12:25:19.105Z,22.50
2023-04-20T12:28:21.367Z,22.50
2023-04-20T12:31:25.887Z,23.60
2023-04-20T12:34:28.135Z,19.80
2023-04-20T12:37:30.091Z,23.00
2023-04-20T12:40:31.572Z,22.80
2023-04-20T12:43:33.572Z,24.80
2023-04-20T12:46:35.497Z,23.00
2023-04-20T12:49:37.609Z,23.10
2023-04-20T12:52:39.634Z,23.10
2023-04-20T12:55:41.328Z,23.20
2023-04-20T12:58:44.210Z,23.30
2023-04-20T13:01:45.717Z,23.40
2023-04-20T13:04:47.343Z,23.00
2023-04-20T13:07:48.758Z,23.20
2023-04-20T13:10:50.057Z,23.10
2023-04-20T13:13:54.962Z,23.30
2023-04-20T13:16:56.510Z,23.30
2023-04-20T13:19:57.919Z,23.10
2023-04-20T13:23:00.326Z,23.10
2023-04-20T13:26:02.190Z,23.70
2023-04-20T13:29:04.359Z,23.10
2023-04-20T13:32:06.051Z,23.20
2023-04-20T13:35:11.478Z,23.20
2023-04-20T13:38:12.889Z,23.40
2023-04-20T13:41:14.336Z,23.40
2023-04-20T13:44:17.737Z,23.50
2023-04-20T13:47:20.522Z,23.50
2023-04-20T13:50:22.035Z,23.60
2023-04-20T13:53:24.281Z,23.90
2023-04-20T13:56:26.190Z,23.50
2023-04-20T13:59:28.290Z,23.70
2023-04-20T14:02:30.090Z,23.70
2023-04-20T14:05:31.578Z,23.60
2023-04-20T14:08:35.408Z,23.40
2023-04-20T14:11:37.032Z,23.40
2023-04-20T14:14:39.356Z,23.50
2023-04-20T14:17:41.009Z,23.50
2023-04-20T14:20:49.022Z,23.60
2023-04-20T14:23:52.633Z,23.60
2023-04-20T14:26:54.266Z,23.50
2023-04-20T14:29:56.463Z,23.70
2023-04-20T14:33:02.917Z,23.70
2023-04-20T14:36:04.793Z,23.80
2023-04-20T14:39:06.461Z,23.90
2023-04-20T14:42:08.039Z,23.60
2023-04-20T14:45:11.531Z,23.90
2023-04-20T14:48:13.144Z,23.80
2023-04-20T14:51:15.809Z,23.60
2023-04-20T14:54:17.483Z,24.00
2023-04-20T14:57:19.331Z,23.80
2023-04-20T15:00:25.648Z,23.90
2023-04-20T15:03:27.870Z,23.80
2023-04-20T15:06:29.442Z,24.20
2023-04-20T15:09:31.867Z,24.00
2023-04-20T15:12:33.303Z,23.80
2023-04-20T15:15:47.547Z,24.50
2023-04-20T15:18:51.943Z,24.00
2023-04-20T15:21:53.321Z,24.00
2023-04-20T15:24:54.780Z,24.10
2023-04-20T15:27:59.097Z,24.10
2023-04-20T15:31:01.808Z,23.80
2023-04-20T15:34:03.173Z,24.10
2023-04-20T15:37:06.089Z,24.00
2023-04-20T15:40:08.121Z,24.10
2023-04-20T15:43:09.539Z,24.10
2023-04-20T15:46:11.659Z,24.20
2023-04-20T15:49:13.106Z,23.90
2023-04-20T15:52:14.650Z,24.30
2023-04-20T15:55:16.368Z,24.20
2023-04-20T15:58:18.273Z,24.20
2023-04-20T16:01:23.690Z,23.80
2023-04-20T16:04:27.017Z,24.20
2023-04-20T16:07:28.700Z,24.10
2023-04-20T16:10:33.331Z,24.00
2023-04-20T16:13:36.917Z,24.20
2023-04-20T16:16:40.035Z,24.20
2023-04-20T16:19:44.105Z,24.10
2023-04-20T16:22:45.497Z,24.10
2023-04-20T16:25:48.985Z,24.10
2023-04-20T16:28:50.548Z,24.10
2023-04-20T16:31:52.766Z,24.10
2023-04-20T16:34:54.278Z,24.00
2023-04-20T16:37:56.001Z,24.20
2023-04-20T16:40:57.607Z,24.20
2023-04-20T16:43:59.198Z,24.20
2023-04-20T16:47:01.372Z,24.00
2023-04-20T16:50:06.248Z,23.90
2023-04-20T16:53:08.405Z,24.20
2023-04-20T16:56:11.602Z,24.10
2023-04-20T16:59:14.554Z,23.90
2023-04-20T17:02:16.783Z,24.00
2023-04-20T17:05:18.455Z,24.20
2023-04-20T17:08:21.649Z,23.90
2023-04-20T17:11:23.075Z,24.10
2023-04-20T17:14:24.665Z,24.20
2023-04-20T17:17:27.410Z,24.00
2023-04-20T17:20:29.015Z,23.80
2023-04-20T17:23:35.950Z,23.80
2023-04-20T17:26:37.490Z,23.90
2023-04-20T17:29:39.470Z,23.80
2023-04-20T17:32:44.171Z,24.20
2023-04-20T17:35:45.751Z,24.00
2023-04-20T17:38:47.184Z,23.80
2023-04-20T17:41:48.708Z,24.00
2023-04-20T17:44:53.660Z,23.70
2023-04-20T17:47:57.941Z,23.70
2023-04-20T17:50:59.414Z,23.80
2023-04-20T17:54:00.853Z,23.80
2023-04-20T17:57:02.254Z,23.70
2023-04-20T18:00:04.966Z,23.80
2023-04-20T18:03:14.183Z,23.80
2023-04-20T18:06:15.997Z,24.00
2023-04-20T18:09:19.634Z,24.10
2023-04-20T18:12:21.038Z,24.00
2023-04-20T18:15:23.327Z,23.70
2023-04-20T18:18:25.315Z,24.00
2023-04-20T18:21:28.767Z,24.00
2023-04-20T18:24:30.545Z,24.00
2023-04-20T18:27:31.973Z,23.80
2023-04-20T18:30:33.711Z,23.80
2023-04-20T18:33:35.944Z,23.80
2023-04-20T18:36:37.310Z,24.00
2023-04-20T18:39:41.618Z,23.60
2023-04-20T18:42:43.041Z,23.90
2023-04-20T18:45:44.536Z,23.90
2023-04-20T18:48:47.708Z,23.80
2023-04-20T18:51:49.102Z,24.00
2023-04-20T18:54:51.085Z,23.60
2023-04-20T18:57:52.514Z,23.80
2023-04-20T19:00:54.166Z,23.80
2023-04-20T19:03:56.372Z,23.80
2023-04-20T19:06:59.456Z,23.30
2023-04-20T19:10:01.291Z,23.40
2023-04-20T19:13:02.757Z,23.70
2023-04-20T19:16:05.384Z,23.80
2023-04-20T19:19:07.433Z,23.60
2023-04-20T19:22:08.825Z,23.40
2023-04-20T19:25:13.304Z,23.70
2023-04-20T19:28:14.837Z,23.60
2023-04-20T19:31:16.578Z,23.30
2023-04-20T19:34:18.798Z,23.70
2023-04-20T19:37:20.422Z,23.30
2023-04-20T19:40:25.261Z,23.30
2023-04-20T19:43:26.903Z,23.50
2023-04-20T19:46:28.331Z,23.50
2023-04-20T19:49:30.385Z,23.50
2023-04-20T19:52:33.508Z,23.30
2023-04-20T19:55:34.888Z,23.20
2023-04-20T19:58:36.640Z,23.50
2023-04-20T20:01:41.230Z,23.20
2023-04-20T20:04:43.801Z,23.10
2023-04-20T20:07:45.373Z,23.10
2023-04-20T20:10:47.094Z,23.20
2023-04-20T20:13:48.495Z,23.10
2023-04-20T20:16:49.771Z,23.20
2023-04-20T20:19:52.977Z,22.90
2023-04-20T20:22:55.156Z,23.30
2023-04-20T20:25:56.635Z,23.30
2023-04-20T20:28:58.045Z,22.90
2023-04-20T20:31:59.575Z,23.30
2023-04-20T20:35:01.760Z,22.80
2023-04-20T20:38:08.270Z,23.30
2023-04-20T20:41:10.047Z,23.20
2023-04-20T20:44:11.668Z,23.10
2023-04-20T20:47:13.097Z,23.10
2023-04-20T20:50:15.593Z,23.20
2023-04-20T20:53:19.489Z,22.90
2023-04-20T20:56:20.987Z,23.10
2023-04-20T20:59:22.355Z,22.90
2023-04-20T21:02:23.871Z,23.20
2023-04-20T21:05:25.966Z,22.70
2023-04-20T21:08:27.477Z,22.70
2023-04-20T21:11:29.066Z,23.10
2023-04-20T21:14:30.622Z,23.00
2023-04-20T21:17:36.263Z,23.10
2023-04-20T21:20:38.289Z,22.90
2023-04-20T21:23:39.661Z,23.00
2023-04-20T21:26:41.081Z,23.00
2023-04-20T21:29:42.489Z,23.00
2023-04-20T21:32:46.679Z,22.90
2023-04-20T21:35:48.656Z,22.60
2023-04-20T21:38:52.926Z,22.80
2023-04-20T21:41:54.405Z,22.50
2023-04-20T21:44:55.785Z,22.60
2023-04-20T21:47:57.040Z,22.80
2023-04-20T21:50:59.055Z,22.50
2023-04-20T21:54:00.714Z,22.50
2023-04-20T21:57:03.568Z,22.50
2023-04-20T22:00:07.865Z,22.80
2023-04-20T22:03:16.424Z,22.70
2023-04-20T22:06:18.536Z,22.50
2023-04-20T22:09:20.265Z,22.50
2023-04-20T22:12:38.387Z,22.70
2023-04-20T22:15:40.550Z,22.40
2023-04-20T22:18:42.024Z,22.70
2023-04-20T22:21:44.117Z,22.70
2023-04-20T22:24:45.524Z,22.30
2023-04-20T22:27:46.815Z,22.60
2023-04-20T22:30:51.459Z,22.40
2023-04-20T22:33:53.194Z,22.50
2023-04-20T22:36:55.209Z,22.80
2023-04-20T22:39:56.674Z,22.30
2023-04-20T22:42:57.905Z,22.20
2023-04-20T22:45:59.322Z,22.20
2023-04-20T22:49:00.566Z,22.20
2023-04-20T22:52:03.427Z,22.20
2023-04-20T22:55:05.594Z,22.30
2023-04-20T22:58:07.088Z,22.10
2023-04-20T23:01:12.045Z,22.30
2023-04-20T23:04:13.834Z,22.40
2023-04-20T23:07:17.213Z,22.20
2023-04-20T23:10:19.471Z,22.40
2023-04-20T23:13:21.328Z,22.40
2023-04-20T23:16:22.754Z,22.30
2023-04-20T23:19:24.943Z,22.40
2023-04-20T23:22:29.553Z,22.40
2023-04-20T23:25:39.087Z,22.30
2023-04-20T23:28:40.515Z,22.60
2023-04-20T23:31:41.833Z,21.90
2023-04-20T23:34:43.489Z,21.90
2023-04-20T23:37:45.449Z,21.90
2023-04-20T23:40:46.861Z,22.00
2023-04-20T23:43:48.077Z,21.90
2023-04-20T23:46:52.319Z,22.00
2023-04-20T23:49:53.698Z,22.20
2023-04-20T23:52:56.037Z,22.30
2023-04-20T23:55:58.990Z,22.20
2023-04-20T23:59:00.419Z,22.00
